createdAt,value
2023-05-16T00:00:45.447Z,19.72
2023-05-16T00:03:34.476Z,19.75
2023-05-16T00:06:21.117Z,19.61
2023-05-16T00:09:07.692Z,19.70
2023-05-16T00:11:54.116Z,19.84
2023-05-16T00:14:40.596Z,19.54
2023-05-16T00:17:28.931Z,19.63
2023-05-16T00:20:17.180Z,19.63
2023-05-16T00:23:03.985Z,19.66
2023-05-16T00:25:49.992Z,19.63
2023-05-16T00:28:36.354Z,19.67
2023-05-16T00:31:23.458Z,19.73
2023-05-16T00:34:11.055Z,19.72
2023-05-16T00:36:58.197Z,19.77
2023-05-16T00:39:44.386Z,19.52
2023-05-16T00:42:30.902Z,19.66
2023-05-16T00:45:17.278Z,19.67
2023-05-16T00:48:03.816Z,19.74
2023-05-16T00:50:50.389Z,19.70
2023-05-16T00:53:38.217Z,19.67
2023-05-16T00:56:24.673Z,19.70
2023-05-16T00:59:10.977Z,19.72
2023-05-16T01:01:58.639Z,19.75
2023-05-16T01:04:45.353Z,19.84
2023-05-16T01:07:31.342Z,19.97
2023-05-16T01:10:18.919Z,20.01
2023-05-16T01:13:10.382Z,19.82
2023-05-16T01:16:01.335Z,19.84
2023-05-16T01:18:48.849Z,19.80
2023-05-16T01:21:43.523Z,19.66
2023-05-16T01:24:35.557Z,19.74
2023-05-16T01:27:24.064Z,19.78
2023-05-16T01:30:18.006Z,19.81
2023-05-16T01:33:04.875Z,19.76
2023-05-16T01:35:56.822Z,19.75
2023-05-16T01:38:46.073Z,19.73
2023-05-16T01:41:37.694Z,19.70
2023-05-16T01:44:30.360Z,19.57
2023-05-16T01:47:18.010Z,19.63
2023-05-16T01:50:07.296Z,19.71
2023-05-16T01:52:57.490Z,19.73
2023-05-16T01:55:46.564Z,19.72
2023-05-16T01:58:34.386Z,19.80
2023-05-16T02:01:21.825Z,19.72
2023-05-16T02:04:08.676Z,19.73
2023-05-16T02:06:55.580Z,19.53
2023-05-16T02:09:41.553Z,19.72
2023-05-16T02:12:27.986Z,19.45
2023-05-16T02:15:14.627Z,19.59
2023-05-16T02:18:02.069Z,19.48
2023-05-16T02:20:48.522Z,19.58
2023-05-16T02:23:35.730Z,19.52
2023-05-16T02:26:21.863Z,19.53
2023-05-16T02:29:07.912Z,19.30
2023-05-16T02:31:53.676Z,19.37
2023-05-16T02:34:40.968Z,19.32
2023-05-16T02:37:27.480Z,19.28
2023-05-16T02:40:14.607Z,19.42
2023-05-16T02:43:00.516Z,19.33
2023-05-16T02:45:46.956Z,19.27
2023-05-16T02:48:33.086Z,19.29
2023-05-16T02:51:21.412Z,19.33
2023-05-16T02:54:09.893Z,19.42
2023-05-16T02:56:56.305Z,19.36
2023-05-16T02:59:42.237Z,19.40
2023-05-16T03:02:28.327Z,19.42
2023-05-16T03:05:14.199Z,19.19
2023-05-16T03:08:01.684Z,19.33
2023-05-16T03:10:47.762Z,19.29
2023-05-16T03:13:33.898Z,19.40
2023-05-16T03:16:20.108Z,19.22
2023-05-16T03:19:06.679Z,19.20
2023-05-16T03:21:52.952Z,19.16
2023-05-16T03:24:40.478Z,19.24
2023-05-16T03:27:27.815Z,19.07
2023-05-16T03:30:14.458Z,19.02
2023-05-16T03:33:00.502Z,19.12
2023-05-16T03:35:46.983Z,19.14
2023-05-16T03:38:33.394Z,18.90
2023-05-16T03:41:21.004Z,18.98
2023-05-16T03:44:06.943Z,19.04
2023-05-16T03:46:53.006Z,19.13
2023-05-16T03:49:39.171Z,19.03
2023-05-16T03:52:25.251Z,18.97
2023-05-16T03:55:14.215Z,18.93
2023-05-16T03:58:01.767Z,18.80
2023-05-16T04:00:47.670Z,18.79
2023-05-16T04:03:33.749Z,18.98
2023-05-16T04:06:20.254Z,18.69
2023-05-16T04:09:07.121Z,18.65
2023-05-16T04:11:52.988Z,18.75
2023-05-16T04:14:40.283Z,18.66
2023-05-16T04:17:27.206Z,18.87
2023-05-16T04:20:13.404Z,18.82
2023-05-16T04:22:59.328Z,18.75
2023-05-16T04:25:45.268Z,18.74
2023-05-16T04:28:31.232Z,18.52
2023-05-16T04:31:18.474Z,18.69
2023-05-16T04:34:04.758Z,18.77
2023-05-16T04:36:51.237Z,18.78
2023-05-16T04:39:37.792Z,18.78
2023-05-16T04:42:24.166Z,18.80
2023-05-16T04:45:11.942Z,18.95
2023-05-16T04:47:59.589Z,18.82
2023-05-16T04:50:45.817Z,18.80
2023-05-16T04:53:32.049Z,18.81
2023-05-16T04:56:18.064Z,18.74
2023-05-16T04:59:04.088Z,18.76
2023-05-16T05:01:50.409Z,18.86
2023-05-16T05:04:38.082Z,18.77
2023-05-16T05:07:23.990Z,18.79
2023-05-16T05:10:11.701Z,18.91
2023-05-16T05:12:58.534Z,18.70
2023-05-16T05:15:44.488Z,18.82
2023-05-16T05:18:30.499Z,18.99
2023-05-16T05:21:18.375Z,18.80
2023-05-16T05:24:04.335Z,18.76
2023-05-16T05:26:50.273Z,18.92
2023-05-16T05:29:36.515Z,18.81
2023-05-16T05:32:22.573Z,18.72
2023-05-16T05:35:08.725Z,18.86
2023-05-16T05:37:56.177Z,18.97
2023-05-16T05:40:42.343Z,18.86
2023-05-16T05:43:28.510Z,18.78
2023-05-16T05:46:15.346Z,18.66
2023-05-16T05:49:02.000Z,18.73
2023-05-16T05:51:48.015Z,18.83
2023-05-16T05:54:35.425Z,19.04
2023-05-16T05:57:21.579Z,19.13
2023-05-16T06:00:09.885Z,19.20
2023-05-16T06:02:56.583Z,19.19
2023-05-16T06:05:43.413Z,19.37
2023-05-16T06:08:29.570Z,19.28
2023-05-16T06:11:16.863Z,19.44
2023-05-16T06:14:02.709Z,19.40
2023-05-16T06:16:48.650Z,19.65
2023-05-16T06:19:35.418Z,19.66
2023-05-16T06:22:21.601Z,19.79
2023-05-16T06:25:08.345Z,19.94
2023-05-16T06:27:56.031Z,19.97
2023-05-16T06:30:42.441Z,20.34
2023-05-16T06:33:28.822Z,20.41
2023-05-16T06:36:15.118Z,20.57
2023-05-16T06:39:01.105Z,20.68
2023-05-16T06:41:47.119Z,20.80
2023-05-16T06:44:36.811Z,20.88
2023-05-16T06:47:22.777Z,21.00
2023-05-16T06:50:10.175Z,20.95
2023-05-16T06:52:56.335Z,20.97
2023-05-16T06:55:42.132Z,21.04
2023-05-16T06:58:27.964Z,21.26
2023-05-16T07:01:15.375Z,21.29
2023-05-16T07:04:01.480Z,21.48
2023-05-16T07:06:47.809Z,21.61
2023-05-16T07:09:34.021Z,21.65
2023-05-16T07:12:20.839Z,21.68
2023-05-16T07:15:08.079Z,21.47
2023-05-16T07:17:55.579Z,22.01
2023-05-16T07:20:41.991Z,22.01
2023-05-16T07:23:27.998Z,22.07
2023-05-16T07:26:14.263Z,22.27
2023-05-16T07:29:00.019Z,22.49
2023-05-16T07:31:46.194Z,22.45
2023-05-16T07:34:36.255Z,22.52
2023-05-16T07:37:22.941Z,22.54
2023-05-16T07:40:10.056Z,22.44
2023-05-16T07:42:56.336Z,22.28
2023-05-16T07:45:42.390Z,22.21
2023-05-16T07:48:28.998Z,22.65
2023-05-16T07:51:16.513Z,22.73
2023-05-16T07:54:02.515Z,22.73
2023-05-16T07:56:48.430Z,22.88
2023-05-16T07:59:34.636Z,23.05
2023-05-16T08:02:20.808Z,23.28
2023-05-16T08:05:08.769Z,23.52
2023-05-16T08:07:56.555Z,23.70
2023-05-16T08:10:42.528Z,23.77
2023-05-16T08:13:28.774Z,24.00
2023-05-16T08:16:15.566Z,24.22
2023-05-16T08:19:01.730Z,24.44
2023-05-16T08:21:48.333Z,24.92
2023-05-16T08:24:35.747Z,24.96
2023-05-16T08:27:21.819Z,25.14
2023-05-16T08:30:09.054Z,25.38
2023-05-16T08:32:55.174Z,25.50
2023-05-16T08:35:43.525Z,25.95
2023-05-16T08:38:29.640Z,26.37
2023-05-16T08:41:17.078Z,26.31
2023-05-16T08:44:03.368Z,26.57
2023-05-16T08:46:52.668Z,26.96
2023-05-16T08:49:40.349Z,27.29
2023-05-16T08:52:29.920Z,27.54
2023-05-16T08:55:16.552Z,27.69
2023-05-16T08:58:04.356Z,27.59
2023-05-16T09:00:50.617Z,27.45
2023-05-16T09:03:37.911Z,27.17
2023-05-16T09:06:24.731Z,27.45
2023-05-16T09:09:12.923Z,27.58
2023-05-16T09:11:59.469Z,27.79
2023-05-16T09:14:47.401Z,27.77
2023-05-16T09:17:39.841Z,28.10
2023-05-16T09:20:27.527Z,27.73
2023-05-16T09:23:13.852Z,28.00
2023-05-16T09:26:00.034Z,28.31
2023-05-16T09:28:46.200Z,28.58
2023-05-16T09:31:37.940Z,28.78
2023-05-16T09:34:24.511Z,29.25
2023-05-16T09:37:11.026Z,29.48
2023-05-16T09:39:57.065Z,29.73
2023-05-16T09:42:43.338Z,29.63
2023-05-16T09:45:29.585Z,29.62
2023-05-16T09:48:18.439Z,29.56
2023-05-16T09:51:07.024Z,29.24
2023-05-16T09:53:53.237Z,29.18
2023-05-16T09:56:50.066Z,29.44
2023-05-16T09:59:40.197Z,29.17
2023-05-16T10:02:26.720Z,29.51
2023-05-16T10:05:14.863Z,28.60
2023-05-16T10:08:01.209Z,28.91
2023-05-16T10:10:47.534Z,29.05
2023-05-16T10:13:35.356Z,28.81
2023-05-16T10:16:23.431Z,28.81
2023-05-16T10:19:10.035Z,29.39
2023-05-16T10:22:00.413Z,29.45
2023-05-16T10:24:49.848Z,29.70
2023-05-16T10:27:36.775Z,30.02
2023-05-16T10:30:23.212Z,29.64
2023-05-16T10:33:09.810Z,30.12
2023-05-16T10:35:56.787Z,30.32
2023-05-16T10:38:44.685Z,30.38
2023-05-16T10:41:31.027Z,30.66
2023-05-16T10:44:18.206Z,30.75
2023-05-16T10:47:05.364Z,30.82
2023-05-16T10:49:51.659Z,30.53
2023-05-16T10:52:37.690Z,30.70
2023-05-16T10:55:25.022Z,30.88
2023-05-16T10:58:11.141Z,30.51
2023-05-16T11:01:16.232Z,30.02
2023-05-16T11:04:08.320Z,29.66
2023-05-16T11:06:56.516Z,29.59
2023-05-16T11:09:45.397Z,29.55
2023-05-16T11:12:43.951Z,28.87
2023-05-16T11:15:34.528Z,29.18
2023-05-16T11:18:20.961Z,29.60
2023-05-16T11:21:07.648Z,29.64
2023-05-16T11:24:26.761Z,29.77
2023-05-16T11:27:15.158Z,29.89
2023-05-16T11:30:12.786Z,29.64
2023-05-16T11:32:59.044Z,29.88
2023-05-16T11:36:13.915Z,30.17
2023-05-16T11:39:07.343Z,30.51
2023-05-16T11:41:54.446Z,30.59
2023-05-16T11:44:41.005Z,30.62
2023-05-16T11:47:29.830Z,30.23
2023-05-16T11:50:17.984Z,30.31
2023-05-16T11:53:03.987Z,30.08
2023-05-16T11:55:55.553Z,30.22
2023-05-16T11:58:42.521Z,30.33
2023-05-16T12:01:33.481Z,30.76
2023-05-16T12:04:22.286Z,30.49
2023-05-16T12:07:08.613Z,31.08
2023-05-16T12:09:54.939Z,31.16
2023-05-16T12:12:42.859Z,31.11
2023-05-16T12:15:29.220Z,31.23
2023-05-16T12:18:15.872Z,31.53
2023-05-16T12:21:03.296Z,31.72
2023-05-16T12:23:49.397Z,32.01
2023-05-16T12:26:35.826Z,31.60
2023-05-16T12:29:24.970Z,31.08
2023-05-16T12:32:11.108Z,30.61
2023-05-16T12:34:57.144Z,29.77
2023-05-16T12:37:46.092Z,30.13
2023-05-16T12:40:32.521Z,29.88
2023-05-16T12:43:21.003Z,29.66
2023-05-16T12:46:11.447Z,29.38
2023-05-16T12:49:04.979Z,29.09
2023-05-16T12:51:52.588Z,28.92
2023-05-16T12:54:39.995Z,28.78
2023-05-16T12:57:26.362Z,28.75
2023-05-16T13:00:14.194Z,28.78
2023-05-16T13:03:00.385Z,28.57
2023-05-16T13:05:47.019Z,28.36
2023-05-16T13:08:32.855Z,28.35
2023-05-16T13:11:20.804Z,28.19
2023-05-16T13:14:06.788Z,28.09
2023-05-16T13:16:52.984Z,28.12
2023-05-16T13:19:39.294Z,27.96
2023-05-16T13:22:25.582Z,27.75
2023-05-16T13:25:12.414Z,27.86
2023-05-16T13:27:59.958Z,27.63
2023-05-16T13:30:45.923Z,27.57
2023-05-16T13:33:32.046Z,27.58
2023-05-16T13:36:20.048Z,27.51
2023-05-16T13:39:06.192Z,27.53
2023-05-16T13:41:52.423Z,27.36
2023-05-16T13:44:40.172Z,27.38
2023-05-16T13:47:26.197Z,27.30
2023-05-16T13:50:12.365Z,27.15
2023-05-16T13:52:59.199Z,27.35
2023-05-16T13:55:45.350Z,26.98
2023-05-16T13:58:31.556Z,26.82
2023-05-16T14:01:18.955Z,26.60
2023-05-16T14:04:05.461Z,26.45
2023-05-16T14:06:51.746Z,26.11
2023-05-16T14:09:39.373Z,25.83
2023-05-16T14:12:25.759Z,25.47
2023-05-16T14:15:12.090Z,25.07
2023-05-16T14:18:00.110Z,25.05
2023-05-16T14:20:46.187Z,24.89
2023-05-16T14:23:31.913Z,24.89
2023-05-16T14:26:22.340Z,24.78
2023-05-16T14:29:08.301Z,24.78
2023-05-16T14:31:54.238Z,24.78
2023-05-16T14:34:42.051Z,24.53
2023-05-16T14:37:28.333Z,24.68
2023-05-16T14:40:14.312Z,24.61
2023-05-16T14:43:00.295Z,24.51
2023-05-16T14:45:46.520Z,24.51
2023-05-16T14:48:33.419Z,24.57
2023-05-16T14:51:21.215Z,24.56
2023-05-16T14:54:07.439Z,24.58
2023-05-16T14:56:53.546Z,24.68
2023-05-16T14:59:39.749Z,24.66
2023-05-16T15:02:26.721Z,24.55
2023-05-16T15:05:13.057Z,24.43
2023-05-16T15:08:00.851Z,24.36
2023-05-16T15:10:46.906Z,24.53
2023-05-16T15:13:32.738Z,24.25
2023-05-16T15:16:18.651Z,24.29
2023-05-16T15:19:05.246Z,24.32
2023-05-16T15:21:51.422Z,24.29
2023-05-16T15:24:38.698Z,24.30
2023-05-16T15:27:24.732Z,24.26
2023-05-16T15:30:10.970Z,24.27
2023-05-16T15:32:56.907Z,24.23
2023-05-16T15:35:43.268Z,24.24
2023-05-16T15:38:29.138Z,24.12
2023-05-16T15:41:31.981Z,24.01
2023-05-16T15:44:22.782Z,23.78
2023-05-16T15:47:09.535Z,23.64
2023-05-16T15:49:55.670Z,23.36
2023-05-16T15:52:41.628Z,23.36
2023-05-16T15:55:28.013Z,23.28
2023-05-16T15:58:15.702Z,23.24
2023-05-16T16:01:01.792Z,23.30
2023-05-16T16:03:48.306Z,23.18
2023-05-16T16:06:34.517Z,23.04
2023-05-16T16:09:20.442Z,23.16
2023-05-16T16:12:07.085Z,23.15
2023-05-16T16:14:54.568Z,23.10
2023-05-16T16:17:40.461Z,23.04
2023-05-16T16:20:26.800Z,22.92
2023-05-16T16:23:13.019Z,22.91
2023-05-16T16:25:59.412Z,22.84
2023-05-16T16:28:45.245Z,22.74
2023-05-16T16:31:32.696Z,22.68
2023-05-16T16:34:20.348Z,22.71
2023-05-16T16:37:09.942Z,22.51
2023-05-16T16:39:56.401Z,22.68
2023-05-16T16:42:43.018Z,22.60
2023-05-16T16:45:29.166Z,22.59
2023-05-16T16:48:17.024Z,22.56
2023-05-16T16:51:03.369Z,22.54
2023-05-16T16:53:49.439Z,22.44
2023-05-16T16:56:36.086Z,22.44
2023-05-16T16:59:22.502Z,22.43
2023-05-16T17:02:08.435Z,22.44
2023-05-16T17:04:56.433Z,22.39
2023-05-16T17:07:44.077Z,22.44
2023-05-16T17:10:30.242Z,22.40
2023-05-16T17:13:17.557Z,22.35
2023-05-16T17:16:04.327Z,22.22
2023-05-16T17:18:50.420Z,22.14
2023-05-16T17:21:40.347Z,22.06
2023-05-16T17:24:26.536Z,22.00
2023-05-16T17:27:12.621Z,21.93
2023-05-16T17:29:58.653Z,21.96
2023-05-16T17:32:44.645Z,22.03
2023-05-16T17:35:31.189Z,21.84
2023-05-16T17:38:19.727Z,22.00
2023-05-16T17:41:05.743Z,21.96
2023-05-16T17:43:51.866Z,21.94
2023-05-16T17:46:38.228Z,21.92
2023-05-16T17:49:24.357Z,21.88
2023-05-16T17:52:10.747Z,21.84
2023-05-16T17:54:58.748Z,21.83
2023-05-16T17:57:44.851Z,21.61
2023-05-16T18:00:31.486Z,21.61
2023-05-16T18:03:17.656Z,21.60
2023-05-16T18:06:03.839Z,21.44
2023-05-16T18:08:50.144Z,21.45
2023-05-16T18:11:38.540Z,21.33
2023-05-16T18:14:25.048Z,21.38
2023-05-16T18:17:10.884Z,21.46
2023-05-16T18:19:57.455Z,21.44
2023-05-16T18:22:43.867Z,21.29
2023-05-16T18:25:30.981Z,21.32
2023-05-16T18:28:18.697Z,21.27
2023-05-16T18:31:05.395Z,21.18
2023-05-16T18:33:51.695Z,21.13
2023-05-16T18:36:37.533Z,21.09
2023-05-16T18:39:24.002Z,21.04
2023-05-16T18:42:09.865Z,21.01
2023-05-16T18:44:57.264Z,20.92
2023-05-16T18:47:43.735Z,20.93
2023-05-16T18:50:29.761Z,20.84
2023-05-16T18:53:16.737Z,20.71
2023-05-16T18:56:02.895Z,20.84
2023-05-16T18:58:49.194Z,20.74
2023-05-16T19:01:36.833Z,20.69
2023-05-16T19:04:23.271Z,20.63
2023-05-16T19:07:09.442Z,20.62
2023-05-16T19:09:55.841Z,20.64
2023-05-16T19:12:41.917Z,20.55
2023-05-16T19:15:28.384Z,20.51
2023-05-16T19:18:17.623Z,20.48
2023-05-16T19:21:04.068Z,20.39
2023-05-16T19:23:50.113Z,20.39
2023-05-16T19:26:36.114Z,20.36
2023-05-16T19:29:22.387Z,20.28
2023-05-16T19:32:09.061Z,20.25
2023-05-16T19:34:56.573Z,20.15
2023-05-16T19:37:42.855Z,20.09
2023-05-16T19:40:29.776Z,19.87
2023-05-16T19:43:16.312Z,19.87
2023-05-16T19:46:02.538Z,19.82
2023-05-16T19:48:48.886Z,19.82
2023-05-16T19:51:41.696Z,19.74
2023-05-16T19:54:28.356Z,19.71
2023-05-16T19:57:14.857Z,19.79
2023-05-16T20:00:00.895Z,19.69
2023-05-16T20:02:46.928Z,19.48
2023-05-16T20:05:33.423Z,19.53
2023-05-16T20:08:21.291Z,19.55
2023-05-16T20:11:07.418Z,19.51
2023-05-16T20:13:55.539Z,19.47
2023-05-16T20:16:41.701Z,19.39
2023-05-16T20:19:30.583Z,19.52
2023-05-16T20:22:19.017Z,19.46
2023-05-16T20:25:07.644Z,19.49
2023-05-16T20:27:53.703Z,19.40
2023-05-16T20:30:39.764Z,19.34
2023-05-16T20:33:26.459Z,19.28
2023-05-16T20:36:12.696Z,19.22
2023-05-16T20:38:58.649Z,19.05
2023-05-16T20:41:46.075Z,19.21
2023-05-16T20:44:33.971Z,19.21
2023-05-16T20:47:20.095Z,19.09
2023-05-16T20:50:07.188Z,19.04
2023-05-16T20:52:53.373Z,18.99
2023-05-16T20:55:39.392Z,19.07
2023-05-16T20:58:26.764Z,19.15
2023-05-16T21:01:12.767Z,19.11
2023-05-16T21:03:58.824Z,19.15
2023-05-16T21:06:45.151Z,19.14
2023-05-16T21:09:31.529Z,19.09
2023-05-16T21:12:17.639Z,19.06
2023-05-16T21:15:05.526Z,19.12
2023-05-16T21:17:52.073Z,19.13
2023-05-16T21:20:38.210Z,19.06
2023-05-16T21:23:24.237Z,19.13
2023-05-16T21:26:10.099Z,18.95
2023-05-16T21:28:56.190Z,18.86
2023-05-16T21:31:43.769Z,18.89
2023-05-16T21:34:29.940Z,18.87
2023-05-16T21:37:16.777Z,18.83
2023-05-16T21:40:03.711Z,18.71
2023-05-16T21:42:50.160Z,18.72
2023-05-16T21:45:36.507Z,18.59
2023-05-16T21:48:23.777Z,18.65
2023-05-16T21:51:10.899Z,18.56
2023-05-16T21:53:57.016Z,18.57
2023-05-16T21:56:42.826Z,18.50
2023-05-16T21:59:28.645Z,18.45
2023-05-16T22:02:14.605Z,18.53
2023-05-16T22:05:01.922Z,18.51
2023-05-16T22:07:48.631Z,18.49
2023-05-16T22:10:34.641Z,18.28
2023-05-16T22:13:20.803Z,18.33
2023-05-16T22:16:07.521Z,18.33
2023-05-16T22:18:53.848Z,18.25
2023-05-16T22:21:41.375Z,18.11
2023-05-16T22:24:27.373Z,18.16
2023-05-16T22:27:13.374Z,18.08
2023-05-16T22:29:59.344Z,18.07
2023-05-16T22:32:46.758Z,18.02
2023-05-16T22:35:33.057Z,17.90
2023-05-16T22:38:20.380Z,17.94
2023-05-16T22:41:06.625Z,17.90
2023-05-16T22:43:52.701Z,17.81
2023-05-16T22:46:41.170Z,17.85
2023-05-16T22:49:27.406Z,17.71
2023-05-16T22:52:13.572Z,17.71
2023-05-16T22:55:01.807Z,17.73
2023-05-16T22:57:49.032Z,17.77
2023-05-16T23:00:34.990Z,17.67
2023-05-16T23:03:21.394Z,17.63
2023-05-16T23:06:07.832Z,17.58
2023-05-16T23:08:54.020Z,17.50
2023-05-16T23:11:41.156Z,17.35
2023-05-16T23:14:27.350Z,17.33
2023-05-16T23:17:14.679Z,17.21
2023-05-16T23:20:00.877Z,17.36
2023-05-16T23:22:47.046Z,17.22
2023-05-16T23:25:32.985Z,17.29
2023-05-16T23:28:20.461Z,17.22
2023-05-16T23:31:06.806Z,17.25
2023-05-16T23:33:53.365Z,17.18
2023-05-16T23:36:39.727Z,17.22
2023-05-16T23:39:26.172Z,17.21
2023-05-16T23:42:12.349Z,17.06
2023-05-16T23:45:00.058Z,16.99
2023-05-16T23:47:46.613Z,17.02
2023-05-16T23:50:33.085Z,17.02
2023-05-16T23:53:18.886Z,16.98
2023-05-16T23:56:05.537Z,17.08
2023-05-16T23:58:51.263Z,17.00
